sensor_id;sensor_type;location;lat;lon;timestamp;P1;durP1;ratioP1;P2;durP2;ratioP2
24216;SDS011;12356;49.386;8.688;2023-04-22T00:02:19;3.08;;;2.28;;
24216;SDS011;12356;49.386;8.688;2023-04-22T00:07:22;2.75;;;2.00;;
24216;SDS011;12356;49.386;8.688;2023-04-22T00:09:53;2.95;;;2.40;;
24216;SDS011;12356;49.386;8.688;2023-04-22T00:12:23;2.50;;;2.15;;
24216;SDS011;12356;49.386;8.688;2023-04-22T00:27:31;3.72;;;2.40;;
24216;SDS011;12356;49.386;8.688;2023-04-22T00:30:02;3.63;;;2.38;;
24216;SDS011;12356;49.386;8.688;2023-04-22T00:32:34;3.47;;;2.05;;
24216;SDS011;12356;49.386;8.688;2023-04-22T00:35:04;4.55;;;2.40;;
24216;SDS011;12356;49.386;8.688;2023-04-22T00:37:35;2.65;;;2.30;;
24216;SDS011;12356;49.386;8.688;2023-04-22T00:42:39;3.83;;;2.15;;
24216;SDS011;12356;49.386;8.688;2023-04-22T00:45:14;3.10;;;2.30;;
24216;SDS011;12356;49.386;8.688;2023-04-22T00:47:47;3.20;;;2.22;;
24216;SDS011;12356;49.386;8.688;2023-04-22T00:50:17;3.15;;;2.40;;
24216;SDS011;12356;49.386;8.688;2023-04-22T00:52:48;4.55;;;2.70;;
24216;SDS011;12356;49.386;8.688;2023-04-22T00:55:18;3.45;;;2.90;;
24216;SDS011;12356;49.386;8.688;2023-04-22T00:57:49;3.75;;;3.00;;
24216;SDS011;12356;49.386;8.688;2023-04-22T01:00:21;4.45;;;2.95;;
24216;SDS011;12356;49.386;8.688;2023-04-22T01:02:56;4.70;;;3.17;;
24216;SDS011;12356;49.386;8.688;2023-04-22T01:05:28;6.70;;;3.42;;
24216;SDS011;12356;49.386;8.688;2023-04-22T01:08:00;5.30;;;3.15;;
24216;SDS011;12356;49.386;8.688;2023-04-22T01:10:31;3.42;;;2.90;;
24216;SDS011;12356;49.386;8.688;2023-04-22T01:13:02;4.78;;;3.25;;
24216;SDS011;12356;49.386;8.688;2023-04-22T01:15:32;6.53;;;3.30;;
24216;SDS011;12356;49.386;8.688;2023-04-22T01:18:03;5.38;;;3.25;;
24216;SDS011;12356;49.386;8.688;2023-04-22T01:20:34;6.10;;;3.20;;
24216;SDS011;12356;49.386;8.688;2023-04-22T01:23:04;5.60;;;3.05;;
24216;SDS011;12356;49.386;8.688;2023-04-22T01:25:45;5.28;;;3.08;;
24216;SDS011;12356;49.386;8.688;2023-04-22T01:28:16;4.93;;;3.08;;
24216;SDS011;12356;49.386;8.688;2023-04-22T01:30:47;4.95;;;3.10;;
24216;SDS011;12356;49.386;8.688;2023-04-22T01:33:18;7.18;;;3.00;;
24216;SDS011;12356;49.386;8.688;2023-04-22T01:35:49;3.35;;;2.65;;
24216;SDS011;12356;49.386;8.688;2023-04-22T01:38:19;4.80;;;3.60;;
24216;SDS011;12356;49.386;8.688;2023-04-22T01:40:50;4.43;;;3.10;;
24216;SDS011;12356;49.386;8.688;2023-04-22T01:43:21;3.53;;;2.80;;
24216;SDS011;12356;49.386;8.688;2023-04-22T01:45:52;3.97;;;3.08;;
24216;SDS011;12356;49.386;8.688;2023-04-22T01:48:23;4.03;;;2.85;;
24216;SDS011;12356;49.386;8.688;2023-04-22T01:50:53;4.53;;;3.00;;
24216;SDS011;12356;49.386;8.688;2023-04-22T01:53:24;9.02;;;2.97;;
24216;SDS011;12356;49.386;8.688;2023-04-22T01:55:54;3.72;;;3.03;;
24216;SDS011;12356;49.386;8.688;2023-04-22T01:58:27;4.05;;;3.03;;
24216;SDS011;12356;49.386;8.688;2023-04-22T02:00:58;5.20;;;3.10;;
24216;SDS011;12356;49.386;8.688;2023-04-22T02:03:29;7.47;;;3.08;;
24216;SDS011;12356;49.386;8.688;2023-04-22T02:05:59;5.43;;;2.95;;
24216;SDS011;12356;49.386;8.688;2023-04-22T02:08:30;3.90;;;3.00;;
24216;SDS011;12356;49.386;8.688;2023-04-22T02:11:00;3.80;;;3.30;;
24216;SDS011;12356;49.386;8.688;2023-04-22T02:13:39;3.97;;;2.90;;
24216;SDS011;12356;49.386;8.688;2023-04-22T02:16:10;4.35;;;2.95;;
24216;SDS011;12356;49.386;8.688;2023-04-22T02:18:40;5.70;;;2.63;;
24216;SDS011;12356;49.386;8.688;2023-04-22T02:21:11;5.47;;;3.03;;
24216;SDS011;12356;49.386;8.688;2023-04-22T02:23:42;4.55;;;3.22;;
24216;SDS011;12356;49.386;8.688;2023-04-22T02:26:12;5.03;;;3.15;;
24216;SDS011;12356;49.386;8.688;2023-04-22T02:28:43;5.50;;;3.38;;
24216;SDS011;12356;49.386;8.688;2023-04-22T02:31:14;7.60;;;3.38;;
24216;SDS011;12356;49.386;8.688;2023-04-22T02:33:44;3.78;;;3.10;;
24216;SDS011;12356;49.386;8.688;2023-04-22T02:36:15;5.00;;;3.92;;
24216;SDS011;12356;49.386;8.688;2023-04-22T02:38:45;4.95;;;3.30;;
24216;SDS011;12356;49.386;8.688;2023-04-22T02:41:16;7.20;;;2.97;;
24216;SDS011;12356;49.386;8.688;2023-04-22T02:43:46;4.60;;;3.40;;
24216;SDS011;12356;49.386;8.688;2023-04-22T02:46:17;4.38;;;3.05;;
24216;SDS011;12356;49.386;8.688;2023-04-22T02:48:47;7.40;;;3.25;;
24216;SDS011;12356;49.386;8.688;2023-04-22T02:51:18;5.15;;;3.13;;
24216;SDS011;12356;49.386;8.688;2023-04-22T02:53:50;4.57;;;3.30;;
24216;SDS011;12356;49.386;8.688;2023-04-22T02:56:21;5.28;;;3.08;;
24216;SDS011;12356;49.386;8.688;2023-04-22T02:58:52;4.35;;;3.33;;
24216;SDS011;12356;49.386;8.688;2023-04-22T03:01:22;4.80;;;3.35;;
24216;SDS011;12356;49.386;8.688;2023-04-22T03:03:53;3.28;;;2.97;;
24216;SDS011;12356;49.386;8.688;2023-04-22T03:06:23;4.90;;;3.20;;
24216;SDS011;12356;49.386;8.688;2023-04-22T03:08:54;7.13;;;3.05;;
24216;SDS011;12356;49.386;8.688;2023-04-22T03:11:25;4.70;;;3.22;;
24216;SDS011;12356;49.386;8.688;2023-04-22T03:13:56;4.90;;;3.33;;
24216;SDS011;12356;49.386;8.688;2023-04-22T03:16:26;4.15;;;3.25;;
24216;SDS011;12356;49.386;8.688;2023-04-22T03:18:57;6.57;;;3.20;;
24216;SDS011;12356;49.386;8.688;2023-04-22T03:21:27;5.53;;;3.30;;
24216;SDS011;12356;49.386;8.688;2023-04-22T03:23:58;5.25;;;3.17;;
24216;SDS011;12356;49.386;8.688;2023-04-22T03:26:28;4.85;;;2.85;;
24216;SDS011;12356;49.386;8.688;2023-04-22T03:29:00;5.10;;;3.33;;
24216;SDS011;12356;49.386;8.688;2023-04-22T03:31:30;10.45;;;3.20;;
24216;SDS011;12356;49.386;8.688;2023-04-22T03:34:01;4.72;;;3.17;;
24216;SDS011;12356;49.386;8.688;2023-04-22T03:36:31;3.65;;;2.67;;
24216;SDS011;12356;49.386;8.688;2023-04-22T03:39:02;4.20;;;2.85;;
24216;SDS011;12356;49.386;8.688;2023-04-22T03:41:33;4.25;;;2.88;;
24216;SDS011;12356;49.386;8.688;2023-04-22T03:44:03;4.82;;;2.85;;
24216;SDS011;12356;49.386;8.688;2023-04-22T03:46:34;5.88;;;2.97;;
24216;SDS011;12356;49.386;8.688;2023-04-22T03:49:04;7.43;;;2.65;;
24216;SDS011;12356;49.386;8.688;2023-04-22T03:51:35;3.10;;;2.53;;
24216;SDS011;12356;49.386;8.688;2023-04-22T03:54:06;5.43;;;3.10;;
24216;SDS011;12356;49.386;8.688;2023-04-22T03:56:36;4.38;;;3.00;;
24216;SDS011;12356;49.386;8.688;2023-04-22T03:59:07;3.80;;;2.92;;
24216;SDS011;12356;49.386;8.688;2023-04-22T04:01:37;4.72;;;3.45;;
24216;SDS011;12356;49.386;8.688;2023-04-22T04:04:08;4.97;;;3.10;;
24216;SDS011;12356;49.386;8.688;2023-04-22T04:06:39;4.80;;;3.40;;
24216;SDS011;12356;49.386;8.688;2023-04-22T04:09:09;5.78;;;3.50;;
24216;SDS011;12356;49.386;8.688;2023-04-22T04:11:40;4.38;;;3.38;;
24216;SDS011;12356;49.386;8.688;2023-04-22T04:14:10;4.55;;;3.30;;
24216;SDS011;12356;49.386;8.688;2023-04-22T04:16:41;4.07;;;3.30;;
24216;SDS011;12356;49.386;8.688;2023-04-22T04:19:12;4.65;;;3.10;;
24216;SDS011;12356;49.386;8.688;2023-04-22T04:21:42;5.07;;;3.25;;
24216;SDS011;12356;49.386;8.688;2023-04-22T04:24:13;7.80;;;3.38;;
24216;SDS011;12356;49.386;8.688;2023-04-22T04:26:43;6.72;;;2.95;;
24216;SDS011;12356;49.386;8.688;2023-04-22T04:29:14;5.03;;;3.10;;
24216;SDS011;12356;49.386;8.688;2023-04-22T04:31:44;5.10;;;3.28;;
24216;SDS011;12356;49.386;8.688;2023-04-22T04:34:15;4.40;;;3.38;;
24216;SDS011;12356;49.386;8.688;2023-04-22T04:36:46;5.32;;;3.33;;
24216;SDS011;12356;49.386;8.688;2023-04-22T04:39:17;4.43;;;3.28;;
24216;SDS011;12356;49.386;8.688;2023-04-22T04:41:48;4.63;;;2.80;;
24216;SDS011;12356;49.386;8.688;2023-04-22T04:44:18;3.35;;;3.00;;
24216;SDS011;12356;49.386;8.688;2023-04-22T04:46:49;3.70;;;2.80;;
24216;SDS011;12356;49.386;8.688;2023-04-22T04:49:20;3.40;;;2.80;;
24216;SDS011;12356;49.386;8.688;2023-04-22T04:51:51;4.05;;;2.83;;
24216;SDS011;12356;49.386;8.688;2023-04-22T04:54:22;3.75;;;3.28;;
24216;SDS011;12356;49.386;8.688;2023-04-22T04:56:52;6.47;;;3.47;;
24216;SDS011;12356;49.386;8.688;2023-04-22T04:59:23;6.10;;;3.90;;
24216;SDS011;12356;49.386;8.688;2023-04-22T05:01:54;6.18;;;3.92;;
24216;SDS011;12356;49.386;8.688;2023-04-22T05:04:24;4.65;;;3.85;;
24216;SDS011;12356;49.386;8.688;2023-04-22T05:06:55;4.22;;;3.83;;
24216;SDS011;12356;49.386;8.688;2023-04-22T05:09:25;4.43;;;3.75;;
24216;SDS011;12356;49.386;8.688;2023-04-22T05:11:56;4.13;;;3.42;;
24216;SDS011;12356;49.386;8.688;2023-04-22T05:14:26;6.22;;;3.70;;
24216;SDS011;12356;49.386;8.688;2023-04-22T05:16:57;5.00;;;3.90;;
24216;SDS011;12356;49.386;8.688;2023-04-22T05:19:27;6.22;;;3.90;;
24216;SDS011;12356;49.386;8.688;2023-04-22T05:21:58;6.20;;;4.22;;
24216;SDS011;12356;49.386;8.688;2023-04-22T05:24:29;5.80;;;4.10;;
24216;SDS011;12356;49.386;8.688;2023-04-22T05:26:59;5.53;;;3.97;;
24216;SDS011;12356;49.386;8.688;2023-04-22T05:29:30;5.72;;;4.25;;
24216;SDS011;12356;49.386;8.688;2023-04-22T05:32:01;6.03;;;3.75;;
24216;SDS011;12356;49.386;8.688;2023-04-22T05:34:32;5.25;;;3.88;;
24216;SDS011;12356;49.386;8.688;2023-04-22T05:37:03;7.38;;;3.83;;
24216;SDS011;12356;49.386;8.688;2023-04-22T05:39:34;5.07;;;3.88;;
24216;SDS011;12356;49.386;8.688;2023-04-22T05:42:05;6.82;;;4.20;;
24216;SDS011;12356;49.386;8.688;2023-04-22T05:44:35;5.35;;;4.20;;
24216;SDS011;12356;49.386;8.688;2023-04-22T05:47:06;5.47;;;4.15;;
24216;SDS011;12356;49.386;8.688;2023-04-22T05:49:36;10.05;;;4.18;;
24216;SDS011;12356;49.386;8.688;2023-04-22T05:52:07;5.97;;;4.30;;
24216;SDS011;12356;49.386;8.688;2023-04-22T05:54:37;5.45;;;4.60;;
24216;SDS011;12356;49.386;8.688;2023-04-22T05:57:08;5.82;;;4.28;;
24216;SDS011;12356;49.386;8.688;2023-04-22T05:59:38;6.18;;;4.63;;
24216;SDS011;12356;49.386;8.688;2023-04-22T06:02:09;6.25;;;4.43;;
24216;SDS011;12356;49.386;8.688;2023-04-22T06:04:39;7.68;;;4.65;;
24216;SDS011;12356;49.386;8.688;2023-04-22T06:07:10;6.18;;;4.70;;
24216;SDS011;12356;49.386;8.688;2023-04-22T06:09:40;9.07;;;5.30;;
24216;SDS011;12356;49.386;8.688;2023-04-22T06:12:11;7.47;;;5.05;;
24216;SDS011;12356;49.386;8.688;2023-04-22T06:14:41;8.57;;;5.05;;
24216;SDS011;12356;49.386;8.688;2023-04-22T06:17:12;6.95;;;4.75;;
24216;SDS011;12356;49.386;8.688;2023-04-22T06:19:42;8.07;;;4.85;;
24216;SDS011;12356;49.386;8.688;2023-04-22T06:22:13;9.95;;;5.03;;
24216;SDS011;12356;49.386;8.688;2023-04-22T06:24:43;6.90;;;5.20;;
24216;SDS011;12356;49.386;8.688;2023-04-22T06:27:14;7.95;;;4.88;;
24216;SDS011;12356;49.386;8.688;2023-04-22T06:29:45;8.07;;;5.00;;
24216;SDS011;12356;49.386;8.688;2023-04-22T06:32:15;6.15;;;4.50;;
24216;SDS011;12356;49.386;8.688;2023-04-22T06:34:46;6.53;;;4.90;;
24216;SDS011;12356;49.386;8.688;2023-04-22T06:37:16;6.60;;;4.95;;
24216;SDS011;12356;49.386;8.688;2023-04-22T06:39:47;6.78;;;4.50;;
24216;SDS011;12356;49.386;8.688;2023-04-22T06:42:17;6.38;;;4.40;;
24216;SDS011;12356;49.386;8.688;2023-04-22T06:44:48;6.97;;;4.63;;
24216;SDS011;12356;49.386;8.688;2023-04-22T06:47:18;6.35;;;4.55;;
24216;SDS011;12356;49.386;8.688;2023-04-22T06:49:49;5.03;;;4.22;;
24216;SDS011;12356;49.386;8.688;2023-04-22T06:52:20;5.22;;;4.40;;
24216;SDS011;12356;49.386;8.688;2023-04-22T06:54:50;6.40;;;4.10;;
24216;SDS011;12356;49.386;8.688;2023-04-22T06:57:21;4.75;;;3.95;;
24216;SDS011;12356;49.386;8.688;2023-04-22T06:59:51;5.47;;;4.20;;
24216;SDS011;12356;49.386;8.688;2023-04-22T07:02:22;7.32;;;4.07;;
24216;SDS011;12356;49.386;8.688;2023-04-22T07:04:52;5.25;;;4.15;;
24216;SDS011;12356;49.386;8.688;2023-04-22T07:07:23;5.60;;;4.00;;
24216;SDS011;12356;49.386;8.688;2023-04-22T07:09:54;5.95;;;4.30;;
24216;SDS011;12356;49.386;8.688;2023-04-22T07:12:24;5.88;;;4.40;;
24216;SDS011;12356;49.386;8.688;2023-04-22T07:14:55;6.65;;;4.13;;
24216;SDS011;12356;49.386;8.688;2023-04-22T07:17:26;4.97;;;4.40;;
24216;SDS011;12356;49.386;8.688;2023-04-22T07:19:56;5.10;;;3.72;;
24216;SDS011;12356;49.386;8.688;2023-04-22T07:22:27;9.30;;;4.43;;
24216;SDS011;12356;49.386;8.688;2023-04-22T07:24:57;6.07;;;4.30;;
24216;SDS011;12356;49.386;8.688;2023-04-22T07:27:28;5.35;;;4.63;;
24216;SDS011;12356;49.386;8.688;2023-04-22T07:29:58;6.15;;;4.10;;
24216;SDS011;12356;49.386;8.688;2023-04-22T07:32:29;5.65;;;4.40;;
24216;SDS011;12356;49.386;8.688;2023-04-22T07:35:00;5.22;;;4.03;;
24216;SDS011;12356;49.386;8.688;2023-04-22T07:37:30;7.25;;;4.70;;
24216;SDS011;12356;49.386;8.688;2023-04-22T07:40:01;6.88;;;4.80;;
24216;SDS011;12356;49.386;8.688;2023-04-22T07:42:32;8.73;;;4.55;;
24216;SDS011;12356;49.386;8.688;2023-04-22T07:45:02;6.85;;;4.47;;
24216;SDS011;12356;49.386;8.688;2023-04-22T07:47:33;4.97;;;4.00;;
24216;SDS011;12356;49.386;8.688;2023-04-22T07:50:04;5.30;;;4.32;;
24216;SDS011;12356;49.386;8.688;2023-04-22T07:52:35;6.05;;;4.25;;
24216;SDS011;12356;49.386;8.688;2023-04-22T07:55:05;6.43;;;3.95;;
24216;SDS011;12356;49.386;8.688;2023-04-22T07:57:37;7.40;;;4.20;;
24216;SDS011;12356;49.386;8.688;2023-04-22T08:00:09;7.07;;;4.30;;
24216;SDS011;12356;49.386;8.688;2023-04-22T08:02:40;4.72;;;4.20;;
24216;SDS011;12356;49.386;8.688;2023-04-22T08:05:11;5.18;;;4.22;;
24216;SDS011;12356;49.386;8.688;2023-04-22T08:07:41;4.38;;;3.80;;
24216;SDS011;12356;49.386;8.688;2023-04-22T08:10:12;5.15;;;4.25;;
24216;SDS011;12356;49.386;8.688;2023-04-22T08:12:42;6.45;;;4.40;;
24216;SDS011;12356;49.386;8.688;2023-04-22T08:15:13;6.80;;;4.57;;
24216;SDS011;12356;49.386;8.688;2023-04-22T08:17:43;5.70;;;4.93;;
24216;SDS011;12356;49.386;8.688;2023-04-22T08:20:14;5.32;;;4.35;;
24216;SDS011;12356;49.386;8.688;2023-04-22T08:25:19;5.03;;;4.43;;
24216;SDS011;12356;49.386;8.688;2023-04-22T08:27:50;5.00;;;4.20;;
24216;SDS011;12356;49.386;8.688;2023-04-22T08:30:20;5.30;;;4.40;;
24216;SDS011;12356;49.386;8.688;2023-04-22T08:32:51;5.80;;;4.47;;
24216;SDS011;12356;49.386;8.688;2023-04-22T08:35:22;5.43;;;4.32;;
24216;SDS011;12356;49.386;8.688;2023-04-22T08:37:53;7.18;;;4.35;;
24216;SDS011;12356;49.386;8.688;2023-04-22T08:40:23;6.05;;;4.20;;
24216;SDS011;12356;49.386;8.688;2023-04-22T08:42:54;6.20;;;4.22;;
24216;SDS011;12356;49.386;8.688;2023-04-22T08:45:26;7.03;;;3.97;;
24216;SDS011;12356;49.386;8.688;2023-04-22T08:47:57;4.63;;;3.95;;
24216;SDS011;12356;49.386;8.688;2023-04-22T08:50:28;5.18;;;4.40;;
24216;SDS011;12356;49.386;8.688;2023-04-22T08:53:00;6.57;;;4.50;;
24216;SDS011;12356;49.386;8.688;2023-04-22T08:55:31;4.38;;;3.97;;
24216;SDS011;12356;49.386;8.688;2023-04-22T08:58:03;7.38;;;4.40;;
24216;SDS011;12356;49.386;8.688;2023-04-22T09:00:35;4.22;;;3.35;;
24216;SDS011;12356;49.386;8.688;2023-04-22T09:03:05;5.10;;;3.60;;
24216;SDS011;12356;49.386;8.688;2023-04-22T09:05:38;4.53;;;3.45;;
24216;SDS011;12356;49.386;8.688;2023-04-22T09:10:40;6.30;;;3.45;;
24216;SDS011;12356;49.386;8.688;2023-04-22T09:13:12;5.78;;;3.53;;
24216;SDS011;12356;49.386;8.688;2023-04-22T09:15:42;6.50;;;4.00;;
24216;SDS011;12356;49.386;8.688;2023-04-22T09:18:16;5.15;;;3.70;;
24216;SDS011;12356;49.386;8.688;2023-04-22T09:20:48;4.63;;;3.35;;
24216;SDS011;12356;49.386;8.688;2023-04-22T09:23:23;4.53;;;3.70;;
24216;SDS011;12356;49.386;8.688;2023-04-22T09:25:55;6.68;;;4.15;;
24216;SDS011;12356;49.386;8.688;2023-04-22T09:28:26;4.43;;;3.67;;
24216;SDS011;12356;49.386;8.688;2023-04-22T09:30:58;6.22;;;3.80;;
24216;SDS011;12356;49.386;8.688;2023-04-22T09:33:30;4.85;;;3.80;;
24216;SDS011;12356;49.386;8.688;2023-04-22T09:36:03;12.30;;;5.13;;
24216;SDS011;12356;49.386;8.688;2023-04-22T09:38:38;6.47;;;4.18;;
24216;SDS011;12356;49.386;8.688;2023-04-22T09:41:09;5.80;;;3.72;;
24216;SDS011;12356;49.386;8.688;2023-04-22T09:43:41;4.20;;;3.80;;
24216;SDS011;12356;49.386;8.688;2023-04-22T09:46:12;5.75;;;3.53;;
24216;SDS011;12356;49.386;8.688;2023-04-22T09:48:42;4.65;;;3.30;;
24216;SDS011;12356;49.386;8.688;2023-04-22T09:51:13;4.15;;;3.00;;
24216;SDS011;12356;49.386;8.688;2023-04-22T09:54:01;5.45;;;3.10;;
24216;SDS011;12356;49.386;8.688;2023-04-22T09:56:48;5.57;;;3.40;;
24216;SDS011;12356;49.386;8.688;2023-04-22T09:59:21;6.47;;;4.07;;
24216;SDS011;12356;49.386;8.688;2023-04-22T10:02:00;3.47;;;2.90;;
24216;SDS011;12356;49.386;8.688;2023-04-22T10:04:33;8.98;;;3.17;;
24216;SDS011;12356;49.386;8.688;2023-04-22T10:07:04;6.35;;;2.33;;
24216;SDS011;12356;49.386;8.688;2023-04-22T10:09:35;6.20;;;3.75;;
24216;SDS011;12356;49.386;8.688;2023-04-22T10:12:06;3.95;;;3.05;;
24216;SDS011;12356;49.386;8.688;2023-04-22T10:14:36;3.88;;;2.78;;
24216;SDS011;12356;49.386;8.688;2023-04-22T10:17:07;4.55;;;3.17;;
24216;SDS011;12356;49.386;8.688;2023-04-22T10:19:38;4.18;;;2.92;;
24216;SDS011;12356;49.386;8.688;2023-04-22T10:22:10;4.75;;;2.50;;
24216;SDS011;12356;49.386;8.688;2023-04-22T10:24:42;3.30;;;2.63;;
24216;SDS011;12356;49.386;8.688;2023-04-22T10:27:19;20.00;;;5.95;;
24216;SDS011;12356;49.386;8.688;2023-04-22T10:29:51;3.45;;;2.85;;
24216;SDS011;12356;49.386;8.688;2023-04-22T10:35:06;9.02;;;3.70;;
24216;SDS011;12356;49.386;8.688;2023-04-22T10:37:41;7.32;;;2.95;;
24216;SDS011;12356;49.386;8.688;2023-04-22T10:40:16;8.30;;;3.42;;
24216;SDS011;12356;49.386;8.688;2023-04-22T10:42:51;10.82;;;4.03;;
24216;SDS011;12356;49.386;8.688;2023-04-22T10:45:24;6.05;;;2.92;;
24216;SDS011;12356;49.386;8.688;2023-04-22T10:47:55;5.75;;;3.00;;
24216;SDS011;12356;49.386;8.688;2023-04-22T10:50:31;6.15;;;2.83;;
24216;SDS011;12356;49.386;8.688;2023-04-22T10:53:33;7.30;;;3.65;;
24216;SDS011;12356;49.386;8.688;2023-04-22T10:56:14;6.72;;;2.83;;
24216;SDS011;12356;49.386;8.688;2023-04-22T10:58:47;5.30;;;2.47;;
24216;SDS011;12356;49.386;8.688;2023-04-22T11:01:18;3.17;;;2.20;;
24216;SDS011;12356;49.386;8.688;2023-04-22T11:03:49;3.22;;;2.50;;
24216;SDS011;12356;49.386;8.688;2023-04-22T11:06:20;7.07;;;2.70;;
24216;SDS011;12356;49.386;8.688;2023-04-22T11:09:05;4.68;;;2.42;;
24216;SDS011;12356;49.386;8.688;2023-04-22T11:11:38;5.72;;;2.63;;
24216;SDS011;12356;49.386;8.688;2023-04-22T11:14:08;4.18;;;2.50;;
24216;SDS011;12356;49.386;8.688;2023-04-22T11:16:44;5.78;;;2.40;;
24216;SDS011;12356;49.386;8.688;2023-04-22T11:19:16;5.38;;;2.28;;
24216;SDS011;12356;49.386;8.688;2023-04-22T11:21:46;9.80;;;3.53;;
24216;SDS011;12356;49.386;8.688;2023-04-22T11:24:17;8.38;;;2.90;;
24216;SDS011;12356;49.386;8.688;2023-04-22T11:26:49;4.00;;;2.80;;
24216;SDS011;12356;49.386;8.688;2023-04-22T11:29:24;5.97;;;2.80;;
24216;SDS011;12356;49.386;8.688;2023-04-22T11:31:55;5.57;;;2.80;;
24216;SDS011;12356;49.386;8.688;2023-04-22T11:34:26;3.87;;;2.60;;
24216;SDS011;12356;49.386;8.688;2023-04-22T11:36:58;20.75;;;7.25;;
24216;SDS011;12356;49.386;8.688;2023-04-22T11:39:35;3.03;;;2.10;;
24216;SDS011;12356;49.386;8.688;2023-04-22T11:42:06;6.05;;;2.70;;
24216;SDS011;12356;49.386;8.688;2023-04-22T11:44:37;11.80;;;3.47;;
24216;SDS011;12356;49.386;8.688;2023-04-22T11:47:08;6.30;;;2.70;;
24216;SDS011;12356;49.386;8.688;2023-04-22T11:49:38;6.97;;;3.38;;
24216;SDS011;12356;49.386;8.688;2023-04-22T11:52:09;4.65;;;2.78;;
24216;SDS011;12356;49.386;8.688;2023-04-22T11:54:40;14.20;;;4.50;;
24216;SDS011;12356;49.386;8.688;2023-04-22T11:57:10;3.72;;;2.38;;
24216;SDS011;12356;49.386;8.688;2023-04-22T11:59:55;17.45;;;5.25;;
24216;SDS011;12356;49.386;8.688;2023-04-22T12:02:27;4.35;;;2.30;;
24216;SDS011;12356;49.386;8.688;2023-04-22T12:04:58;7.00;;;2.78;;
24216;SDS011;12356;49.386;8.688;2023-04-22T12:07:29;13.13;;;4.45;;
24216;SDS011;12356;49.386;8.688;2023-04-22T12:10:03;3.50;;;1.90;;
24216;SDS011;12356;49.386;8.688;2023-04-22T12:12:38;4.00;;;2.10;;
24216;SDS011;12356;49.386;8.688;2023-04-22T12:15:09;2.97;;;2.00;;
24216;SDS011;12356;49.386;8.688;2023-04-22T12:17:43;3.90;;;2.03;;
24216;SDS011;12356;49.386;8.688;2023-04-22T12:20:14;3.97;;;2.03;;
24216;SDS011;12356;49.386;8.688;2023-04-22T12:22:45;2.63;;;1.88;;
24216;SDS011;12356;49.386;8.688;2023-04-22T12:25:19;3.72;;;2.00;;
24216;SDS011;12356;49.386;8.688;2023-04-22T12:27:49;3.63;;;1.85;;
24216;SDS011;12356;49.386;8.688;2023-04-22T12:30:20;4.50;;;2.13;;
24216;SDS011;12356;49.386;8.688;2023-04-22T12:32:52;3.97;;;1.98;;
24216;SDS011;12356;49.386;8.688;2023-04-22T12:35:23;4.03;;;2.00;;
24216;SDS011;12356;49.386;8.688;2023-04-22T12:37:53;4.10;;;2.00;;
24216;SDS011;12356;49.386;8.688;2023-04-22T12:40:24;3.00;;;1.75;;
24216;SDS011;12356;49.386;8.688;2023-04-22T12:45:27;16.88;;;4.10;;
24216;SDS011;12356;49.386;8.688;2023-04-22T12:47:58;3.47;;;2.53;;
24216;SDS011;12356;49.386;8.688;2023-04-22T12:50:28;6.15;;;2.53;;
24216;SDS011;12356;49.386;8.688;2023-04-22T12:52:59;13.18;;;3.33;;
24216;SDS011;12356;49.386;8.688;2023-04-22T12:55:30;6.97;;;2.42;;
24216;SDS011;12356;49.386;8.688;2023-04-22T12:58:01;3.15;;;2.10;;
24216;SDS011;12356;49.386;8.688;2023-04-22T13:00:31;4.20;;;2.30;;
24216;SDS011;12356;49.386;8.688;2023-04-22T13:03:02;6.00;;;2.30;;
24216;SDS011;12356;49.386;8.688;2023-04-22T13:05:32;6.60;;;2.15;;
24216;SDS011;12356;49.386;8.688;2023-04-22T13:08:03;4.50;;;2.40;;
24216;SDS011;12356;49.386;8.688;2023-04-22T13:10:34;5.70;;;2.38;;
24216;SDS011;12356;49.386;8.688;2023-04-22T13:13:05;5.80;;;3.70;;
24216;SDS011;12356;49.386;8.688;2023-04-22T13:15:37;7.20;;;3.40;;
24216;SDS011;12356;49.386;8.688;2023-04-22T13:18:07;4.28;;;3.10;;
24216;SDS011;12356;49.386;8.688;2023-04-22T13:20:38;5.40;;;2.60;;
24216;SDS011;12356;49.386;8.688;2023-04-22T13:23:10;6.05;;;2.50;;
24216;SDS011;12356;49.386;8.688;2023-04-22T13:25:42;5.60;;;3.42;;
24216;SDS011;12356;49.386;8.688;2023-04-22T13:28:12;11.50;;;5.72;;
24216;SDS011;12356;49.386;8.688;2023-04-22T13:30:43;4.75;;;3.00;;
24216;SDS011;12356;49.386;8.688;2023-04-22T13:33:13;5.85;;;3.03;;
24216;SDS011;12356;49.386;8.688;2023-04-22T13:35:44;6.03;;;3.13;;
24216;SDS011;12356;49.386;8.688;2023-04-22T13:38:15;6.10;;;3.05;;
24216;SDS011;12356;49.386;8.688;2023-04-22T13:40:45;5.85;;;2.70;;
24216;SDS011;12356;49.386;8.688;2023-04-22T13:43:16;7.82;;;2.88;;
24216;SDS011;12356;49.386;8.688;2023-04-22T13:45:46;5.20;;;3.60;;
24216;SDS011;12356;49.386;8.688;2023-04-22T13:48:17;3.65;;;2.40;;
24216;SDS011;12356;49.386;8.688;2023-04-22T13:50:48;3.15;;;2.17;;
24216;SDS011;12356;49.386;8.688;2023-04-22T13:53:18;5.05;;;2.15;;
24216;SDS011;12356;49.386;8.688;2023-04-22T13:55:49;3.53;;;2.40;;
24216;SDS011;12356;49.386;8.688;2023-04-22T13:58:19;3.97;;;2.33;;
24216;SDS011;12356;49.386;8.688;2023-04-22T14:00:50;5.15;;;3.65;;
24216;SDS011;12356;49.386;8.688;2023-04-22T14:03:21;3.40;;;2.53;;
24216;SDS011;12356;49.386;8.688;2023-04-22T14:05:51;14.90;;;7.30;;
24216;SDS011;12356;49.386;8.688;2023-04-22T14:08:22;7.28;;;3.95;;
24216;SDS011;12356;49.386;8.688;2023-04-22T14:10:53;5.60;;;2.80;;
24216;SDS011;12356;49.386;8.688;2023-04-22T14:13:25;4.60;;;2.35;;
24216;SDS011;12356;49.386;8.688;2023-04-22T14:15:56;8.68;;;3.28;;
24216;SDS011;12356;49.386;8.688;2023-04-22T14:18:26;3.25;;;2.08;;
24216;SDS011;12356;49.386;8.688;2023-04-22T14:20:57;3.40;;;2.10;;
24216;SDS011;12356;49.386;8.688;2023-04-22T14:23:28;3.47;;;2.15;;
24216;SDS011;12356;49.386;8.688;2023-04-22T14:25:58;4.65;;;2.47;;
24216;SDS011;12356;49.386;8.688;2023-04-22T14:28:29;4.93;;;2.05;;
24216;SDS011;12356;49.386;8.688;2023-04-22T14:31:00;3.72;;;2.10;;
24216;SDS011;12356;49.386;8.688;2023-04-22T14:33:30;4.20;;;1.73;;
24216;SDS011;12356;49.386;8.688;2023-04-22T14:36:01;3.40;;;1.77;;
24216;SDS011;12356;49.386;8.688;2023-04-22T14:38:32;3.60;;;1.70;;
24216;SDS011;12356;49.386;8.688;2023-04-22T14:41:03;3.80;;;1.83;;
24216;SDS011;12356;49.386;8.688;2023-04-22T14:43:34;3.88;;;1.95;;
24216;SDS011;12356;49.386;8.688;2023-04-22T14:46:05;4.93;;;2.03;;
24216;SDS011;12356;49.386;8.688;2023-04-22T14:48:36;6.45;;;1.90;;
24216;SDS011;12356;49.386;8.688;2023-04-22T14:51:08;8.68;;;2.22;;
24216;SDS011;12356;49.386;8.688;2023-04-22T14:53:38;2.90;;;1.80;;
24216;SDS011;12356;49.386;8.688;2023-04-22T14:56:10;4.05;;;2.03;;
24216;SDS011;12356;49.386;8.688;2023-04-22T14:58:41;3.65;;;2.03;;
24216;SDS011;12356;49.386;8.688;2023-04-22T15:01:11;2.33;;;1.90;;
24216;SDS011;12356;49.386;8.688;2023-04-22T15:03:42;7.50;;;4.80;;
24216;SDS011;12356;49.386;8.688;2023-04-22T15:06:13;5.45;;;2.00;;
24216;SDS011;12356;49.386;8.688;2023-04-22T15:08:43;4.65;;;1.73;;
24216;SDS011;12356;49.386;8.688;2023-04-22T15:11:14;3.08;;;2.10;;
24216;SDS011;12356;49.386;8.688;2023-04-22T15:13:44;3.97;;;2.80;;
24216;SDS011;12356;49.386;8.688;2023-04-22T15:16:15;2.90;;;1.98;;
24216;SDS011;12356;49.386;8.688;2023-04-22T15:18:46;3.38;;;1.83;;
24216;SDS011;12356;49.386;8.688;2023-04-22T15:21:17;2.78;;;1.77;;
24216;SDS011;12356;49.386;8.688;2023-04-22T15:23:47;3.42;;;1.60;;
24216;SDS011;12356;49.386;8.688;2023-04-22T15:26:18;2.70;;;1.80;;
24216;SDS011;12356;49.386;8.688;2023-04-22T15:28:49;2.60;;;1.90;;
24216;SDS011;12356;49.386;8.688;2023-04-22T15:31:19;5.22;;;1.50;;
24216;SDS011;12356;49.386;8.688;2023-04-22T15:33:50;4.45;;;1.98;;
24216;SDS011;12356;49.386;8.688;2023-04-22T15:36:20;4.30;;;1.88;;
24216;SDS011;12356;49.386;8.688;2023-04-22T15:38:54;4.60;;;2.40;;
24216;SDS011;12356;49.386;8.688;2023-04-22T15:41:25;3.85;;;2.60;;